sensor_id;sensor_type;location;lat;lon;timestamp;temperature;humidity
77277;DHT22;66330;52.166;9.978;2023-02-04T00:01:36;6.50;80.30
77277;DHT22;66330;52.166;9.978;2023-02-04T00:04:01;6.50;80.00
77277;DHT22;66330;52.166;9.978;2023-02-04T00:06:27;6.40;79.60
77277;DHT22;66330;52.166;9.978;2023-02-04T00:08:52;6.40;79.50
77277;DHT22;66330;52.166;9.978;2023-02-04T00:11:18;6.30;79.40
77277;DHT22;66330;52.166;9.978;2023-02-04T00:13:43;6.20;79.20
77277;DHT22;66330;52.166;9.978;2023-02-04T00:16:09;6.20;79.20
77277;DHT22;66330;52.166;9.978;2023-02-04T00:18:34;6.10;79.00
77277;DHT22;66330;52.166;9.978;2023-02-04T00:21:00;6.00;78.90
77277;DHT22;66330;52.166;9.978;2023-02-04T00:23:26;6.00;78.90
77277;DHT22;66330;52.166;9.978;2023-02-04T00:25:51;5.90;78.80
77277;DHT22;66330;52.166;9.978;2023-02-04T00:28:17;5.80;78.70
77277;DHT22;66330;52.166;9.978;2023-02-04T00:30:42;5.80;78.60
77277;DHT22;66330;52.166;9.978;2023-02-04T00:33:08;5.80;78.60
77277;DHT22;66330;52.166;9.978;2023-02-04T00:35:33;5.70;77.80
77277;DHT22;66330;52.166;9.978;2023-02-04T00:38:02;5.70;77.70
77277;DHT22;66330;52.166;9.978;2023-02-04T00:40:27;5.60;78.40
77277;DHT22;66330;52.166;9.978;2023-02-04T00:42:53;5.60;78.00
77277;DHT22;66330;52.166;9.978;2023-02-04T00:45:19;5.60;78.40
77277;DHT22;66330;52.166;9.978;2023-02-04T00:47:44;5.70;78.40
77277;DHT22;66330;52.166;9.978;2023-02-04T00:50:10;5.70;78.40
77277;DHT22;66330;52.166;9.978;2023-02-04T00:52:36;5.50;78.20
77277;DHT22;66330;52.166;9.978;2023-02-04T00:55:01;5.50;78.30
77277;DHT22;66330;52.166;9.978;2023-02-04T00:57:27;5.40;78.30
77277;DHT22;66330;52.166;9.978;2023-02-04T00:59:52;5.40;78.30
77277;DHT22;66330;52.166;9.978;2023-02-04T01:02:18;5.40;78.50
77277;DHT22;66330;52.166;9.978;2023-02-04T01:04:44;5.40;78.70
77277;DHT22;66330;52.166;9.978;2023-02-04T01:07:09;5.40;78.90
77277;DHT22;66330;52.166;9.978;2023-02-04T01:09:35;5.50;79.10
77277;DHT22;66330;52.166;9.978;2023-02-04T01:12:00;5.70;79.30
77277;DHT22;66330;52.166;9.978;2023-02-04T01:14:26;5.60;79.20
77277;DHT22;66330;52.166;9.978;2023-02-04T01:16:51;5.70;79.30
77277;DHT22;66330;52.166;9.978;2023-02-04T01:19:17;5.70;79.20
77277;DHT22;66330;52.166;9.978;2023-02-04T01:21:43;5.80;78.60
77277;DHT22;66330;52.166;9.978;2023-02-04T01:24:08;5.80;78.30
77277;DHT22;66330;52.166;9.978;2023-02-04T01:26:34;5.90;79.10
77277;DHT22;66330;52.166;9.978;2023-02-04T01:28:59;6.20;79.20
77277;DHT22;66330;52.166;9.978;2023-02-04T01:31:25;6.00;78.80
77277;DHT22;66330;52.166;9.978;2023-02-04T01:33:51;6.00;78.50
77277;DHT22;66330;52.166;9.978;2023-02-04T01:36:17;6.10;78.50
77277;DHT22;66330;52.166;9.978;2023-02-04T01:38:46;6.10;78.20
77277;DHT22;66330;52.166;9.978;2023-02-04T01:41:12;6.10;78.00
77277;DHT22;66330;52.166;9.978;2023-02-04T01:43:38;6.10;77.90
77277;DHT22;66330;52.166;9.978;2023-02-04T01:46:04;6.20;77.90
77277;DHT22;66330;52.166;9.978;2023-02-04T01:48:30;6.60;78.30
77277;DHT22;66330;52.166;9.978;2023-02-04T01:51:03;6.20;77.70
77277;DHT22;66330;52.166;9.978;2023-02-04T01:53:29;6.20;77.60
77277;DHT22;66330;52.166;9.978;2023-02-04T01:55:55;6.20;77.50
77277;DHT22;66330;52.166;9.978;2023-02-04T01:58:21;6.20;77.50
77277;DHT22;66330;52.166;9.978;2023-02-04T02:00:47;6.30;77.70
77277;DHT22;66330;52.166;9.978;2023-02-04T02:03:12;6.30;77.60
77277;DHT22;66330;52.166;9.978;2023-02-04T02:05:42;6.30;76.80
77277;DHT22;66330;52.166;9.978;2023-02-04T02:08:09;6.30;77.20
77277;DHT22;66330;52.166;9.978;2023-02-04T02:10:37;6.30;77.50
77277;DHT22;66330;52.166;9.978;2023-02-04T02:13:05;6.30;77.50
77277;DHT22;66330;52.166;9.978;2023-02-04T02:15:31;6.30;77.50
77277;DHT22;66330;52.166;9.978;2023-02-04T02:17:57;6.30;77.50
77277;DHT22;66330;52.166;9.978;2023-02-04T02:20:24;6.40;77.50
77277;DHT22;66330;52.166;9.978;2023-02-04T02:25:45;6.40;77.30
77277;DHT22;66330;52.166;9.978;2023-02-04T02:28:14;6.40;77.30
77277;DHT22;66330;52.166;9.978;2023-02-04T02:30:42;6.40;77.30
77277;DHT22;66330;52.166;9.978;2023-02-04T02:33:13;6.40;77.20
77277;DHT22;66330;52.166;9.978;2023-02-04T02:35:40;6.40;77.30
77277;DHT22;66330;52.166;9.978;2023-02-04T02:38:09;6.40;77.10
77277;DHT22;66330;52.166;9.978;2023-02-04T02:40:36;6.40;77.70
77277;DHT22;66330;52.166;9.978;2023-02-04T02:43:02;6.50;76.90
77277;DHT22;66330;52.166;9.978;2023-02-04T02:45:30;6.40;76.50
77277;DHT22;66330;52.166;9.978;2023-02-04T02:47:58;6.40;75.90
77277;DHT22;66330;52.166;9.978;2023-02-04T02:50:26;6.30;75.60
77277;DHT22;66330;52.166;9.978;2023-02-04T02:52:53;6.30;75.40
77277;DHT22;66330;52.166;9.978;2023-02-04T02:55:22;6.30;75.50
77277;DHT22;66330;52.166;9.978;2023-02-04T02:57:48;6.30;75.40
77277;DHT22;66330;52.166;9.978;2023-02-04T03:00:23;6.20;74.20
77277;DHT22;66330;52.166;9.978;2023-02-04T03:03:11;6.20;75.00
77277;DHT22;66330;52.166;9.978;2023-02-04T03:05:41;6.20;74.90
77277;DHT22;66330;52.166;9.978;2023-02-04T03:08:08;6.20;74.70
77277;DHT22;66330;52.166;9.978;2023-02-04T03:10:35;6.20;74.50
77277;DHT22;66330;52.166;9.978;2023-02-04T03:13:01;6.20;73.60
77277;DHT22;66330;52.166;9.978;2023-02-04T03:15:28;6.10;73.90
77277;DHT22;66330;52.166;9.978;2023-02-04T03:17:53;6.10;73.70
77277;DHT22;66330;52.166;9.978;2023-02-04T03:20:25;6.10;73.70
77277;DHT22;66330;52.166;9.978;2023-02-04T03:22:52;6.00;73.50
77277;DHT22;66330;52.166;9.978;2023-02-04T03:25:18;6.00;73.50
77277;DHT22;66330;52.166;9.978;2023-02-04T03:27:45;6.00;73.30
77277;DHT22;66330;52.166;9.978;2023-02-04T03:30:11;5.90;73.20
77277;DHT22;66330;52.166;9.978;2023-02-04T03:32:37;5.90;72.70
77277;DHT22;66330;52.166;9.978;2023-02-04T03:35:02;5.80;73.10
77277;DHT22;66330;52.166;9.978;2023-02-04T03:37:28;5.90;73.20
77277;DHT22;66330;52.166;9.978;2023-02-04T03:39:53;5.80;73.10
77277;DHT22;66330;52.166;9.978;2023-02-04T03:42:19;5.80;72.20
77277;DHT22;66330;52.166;9.978;2023-02-04T03:44:44;5.70;72.90
77277;DHT22;66330;52.166;9.978;2023-02-04T03:47:10;5.60;72.70
77277;DHT22;66330;52.166;9.978;2023-02-04T03:49:36;5.50;72.60
77277;DHT22;66330;52.166;9.978;2023-02-04T03:52:02;5.50;72.20
77277;DHT22;66330;52.166;9.978;2023-02-04T03:54:28;5.40;72.70
77277;DHT22;66330;52.166;9.978;2023-02-04T03:56:53;5.40;72.80
77277;DHT22;66330;52.166;9.978;2023-02-04T03:59:19;5.30;72.90
77277;DHT22;66330;52.166;9.978;2023-02-04T04:01:44;5.30;72.90
77277;DHT22;66330;52.166;9.978;2023-02-04T04:04:10;5.70;73.40
77277;DHT22;66330;52.166;9.978;2023-02-04T04:06:35;5.30;73.00
77277;DHT22;66330;52.166;9.978;2023-02-04T04:09:01;5.30;73.00
77277;DHT22;66330;52.166;9.978;2023-02-04T04:11:27;5.30;73.10
77277;DHT22;66330;52.166;9.978;2023-02-04T04:13:52;5.60;73.50
77277;DHT22;66330;52.166;9.978;2023-02-04T04:16:18;5.30;73.20
77277;DHT22;66330;52.166;9.978;2023-02-04T04:18:45;5.30;73.20
77277;DHT22;66330;52.166;9.978;2023-02-04T04:21:10;5.30;72.20
77277;DHT22;66330;52.166;9.978;2023-02-04T04:23:36;5.30;73.20
77277;DHT22;66330;52.166;9.978;2023-02-04T04:26:02;5.30;73.20
77277;DHT22;66330;52.166;9.978;2023-02-04T04:28:27;5.30;73.10
77277;DHT22;66330;52.166;9.978;2023-02-04T04:30:53;5.30;73.10
77277;DHT22;66330;52.166;9.978;2023-02-04T04:33:18;5.20;72.60
77277;DHT22;66330;52.166;9.978;2023-02-04T04:35:44;5.20;72.90
77277;DHT22;66330;52.166;9.978;2023-02-04T04:38:10;5.10;72.70
77277;DHT22;66330;52.166;9.978;2023-02-04T04:40:35;5.00;72.60
77277;DHT22;66330;52.166;9.978;2023-02-04T04:43:01;4.90;72.60
77277;DHT22;66330;52.166;9.978;2023-02-04T04:45:27;4.80;72.60
77277;DHT22;66330;52.166;9.978;2023-02-04T04:47:53;4.80;72.70
77277;DHT22;66330;52.166;9.978;2023-02-04T04:50:19;4.70;72.70
77277;DHT22;66330;52.166;9.978;2023-02-04T04:52:44;4.50;72.70
77277;DHT22;66330;52.166;9.978;2023-02-04T04:55:10;4.50;72.80
77277;DHT22;66330;52.166;9.978;2023-02-04T04:57:36;4.40;72.80
77277;DHT22;66330;52.166;9.978;2023-02-04T05:00:02;4.30;72.80
77277;DHT22;66330;52.166;9.978;2023-02-04T05:02:28;4.20;72.90
77277;DHT22;66330;52.166;9.978;2023-02-04T05:04:53;4.10;72.80
77277;DHT22;66330;52.166;9.978;2023-02-04T05:07:19;4.00;73.00
77277;DHT22;66330;52.166;9.978;2023-02-04T05:09:45;3.80;73.00
77277;DHT22;66330;52.166;9.978;2023-02-04T05:12:10;4.20;73.70
77277;DHT22;66330;52.166;9.978;2023-02-04T05:14:36;3.80;73.50
77277;DHT22;66330;52.166;9.978;2023-02-04T05:17:02;3.70;73.60
77277;DHT22;66330;52.166;9.978;2023-02-04T05:19:27;4.00;74.10
77277;DHT22;66330;52.166;9.978;2023-02-04T05:21:53;3.70;74.00
77277;DHT22;66330;52.166;9.978;2023-02-04T05:24:18;3.60;73.90
77277;DHT22;66330;52.166;9.978;2023-02-04T05:26:44;3.50;73.90
77277;DHT22;66330;52.166;9.978;2023-02-04T05:29:10;3.40;73.90
77277;DHT22;66330;52.166;9.978;2023-02-04T05:31:35;3.40;74.10
77277;DHT22;66330;52.166;9.978;2023-02-04T05:34:01;3.30;74.10
77277;DHT22;66330;52.166;9.978;2023-02-04T05:36:26;3.00;74.00
77277;DHT22;66330;52.166;9.978;2023-02-04T05:38:52;3.40;74.60
77277;DHT22;66330;52.166;9.978;2023-02-04T05:41:17;3.10;74.50
77277;DHT22;66330;52.166;9.978;2023-02-04T05:43:43;3.10;73.70
77277;DHT22;66330;52.166;9.978;2023-02-04T05:46:09;3.10;75.50
77277;DHT22;66330;52.166;9.978;2023-02-04T05:48:34;3.00;74.70
77277;DHT22;66330;52.166;9.978;2023-02-04T05:51:00;2.80;74.70
77277;DHT22;66330;52.166;9.978;2023-02-04T05:53:25;2.60;74.80
77277;DHT22;66330;52.166;9.978;2023-02-04T05:55:51;2.70;75.10
77277;DHT22;66330;52.166;9.978;2023-02-04T05:58:16;2.60;75.20
77277;DHT22;66330;52.166;9.978;2023-02-04T06:00:42;2.90;75.60
77277;DHT22;66330;52.166;9.978;2023-02-04T06:03:08;2.60;75.50
77277;DHT22;66330;52.166;9.978;2023-02-04T06:05:33;2.50;75.60
77277;DHT22;66330;52.166;9.978;2023-02-04T06:07:59;2.40;75.70
77277;DHT22;66330;52.166;9.978;2023-02-04T06:10:24;2.40;76.00
77277;DHT22;66330;52.166;9.978;2023-02-04T06:12:50;2.40;76.10
77277;DHT22;66330;52.166;9.978;2023-02-04T06:15:15;2.30;75.80
77277;DHT22;66330;52.166;9.978;2023-02-04T06:17:41;2.20;76.20
77277;DHT22;66330;52.166;9.978;2023-02-04T06:20:08;2.40;76.60
77277;DHT22;66330;52.166;9.978;2023-02-04T06:22:33;2.10;76.50
77277;DHT22;66330;52.166;9.978;2023-02-04T06:24:59;2.30;76.80
77277;DHT22;66330;52.166;9.978;2023-02-04T06:27:24;2.10;76.80
77277;DHT22;66330;52.166;9.978;2023-02-04T06:29:53;2.10;76.90
77277;DHT22;66330;52.166;9.978;2023-02-04T06:32:19;2.30;77.30
77277;DHT22;66330;52.166;9.978;2023-02-04T06:34:45;2.00;77.70
77277;DHT22;66330;52.166;9.978;2023-02-04T06:37:11;2.00;77.00
77277;DHT22;66330;52.166;9.978;2023-02-04T06:39:37;1.80;77.00
77277;DHT22;66330;52.166;9.978;2023-02-04T06:42:03;2.00;77.30
77277;DHT22;66330;52.166;9.978;2023-02-04T06:44:28;2.10;77.50
77277;DHT22;66330;52.166;9.978;2023-02-04T06:46:54;1.80;77.20
77277;DHT22;66330;52.166;9.978;2023-02-04T06:49:20;1.80;77.30
77277;DHT22;66330;52.166;9.978;2023-02-04T06:51:45;1.80;77.50
77277;DHT22;66330;52.166;9.978;2023-02-04T06:54:13;1.80;77.50
77277;DHT22;66330;52.166;9.978;2023-02-04T06:56:38;1.70;77.60
77277;DHT22;66330;52.166;9.978;2023-02-04T06:59:04;1.70;77.80
77277;DHT22;66330;52.166;9.978;2023-02-04T07:01:30;1.80;77.40
77277;DHT22;66330;52.166;9.978;2023-02-04T07:03:55;1.70;78.20
77277;DHT22;66330;52.166;9.978;2023-02-04T07:06:21;2.10;78.70
77277;DHT22;66330;52.166;9.978;2023-02-04T07:08:46;1.90;78.60
77277;DHT22;66330;52.166;9.978;2023-02-04T07:11:14;2.00;78.80
77277;DHT22;66330;52.166;9.978;2023-02-04T07:13:39;2.10;79.00
77277;DHT22;66330;52.166;9.978;2023-02-04T07:16:05;2.50;79.30
77277;DHT22;66330;52.166;9.978;2023-02-04T07:18:31;2.20;79.00
77277;DHT22;66330;52.166;9.978;2023-02-04T07:20:57;2.30;79.00
77277;DHT22;66330;52.166;9.978;2023-02-04T07:23:23;2.60;79.40
77277;DHT22;66330;52.166;9.978;2023-02-04T07:25:50;2.50;79.00
77277;DHT22;66330;52.166;9.978;2023-02-04T07:28:18;2.60;79.30
77277;DHT22;66330;52.166;9.978;2023-02-04T07:30:44;2.80;79.40
77277;DHT22;66330;52.166;9.978;2023-02-04T07:33:10;2.80;79.20
77277;DHT22;66330;52.166;9.978;2023-02-04T07:35:35;2.90;79.10
77277;DHT22;66330;52.166;9.978;2023-02-04T07:38:03;2.90;79.00
77277;DHT22;66330;52.166;9.978;2023-02-04T07:40:28;3.20;79.20
77277;DHT22;66330;52.166;9.978;2023-02-04T07:42:54;3.20;78.30
77277;DHT22;66330;52.166;9.978;2023-02-04T07:45:20;3.20;79.00
77277;DHT22;66330;52.166;9.978;2023-02-04T07:47:45;3.40;79.00
77277;DHT22;66330;52.166;9.978;2023-02-04T07:50:11;3.30;78.80
77277;DHT22;66330;52.166;9.978;2023-02-04T07:52:37;3.40;77.80
77277;DHT22;66330;52.166;9.978;2023-02-04T07:55:03;3.50;78.70
77277;DHT22;66330;52.166;9.978;2023-02-04T07:57:29;3.60;78.70
77277;DHT22;66330;52.166;9.978;2023-02-04T07:59:55;3.70;78.30
77277;DHT22;66330;52.166;9.978;2023-02-04T08:02:20;3.80;78.60
77277;DHT22;66330;52.166;9.978;2023-02-04T08:04:46;3.80;77.30
77277;DHT22;66330;52.166;9.978;2023-02-04T08:07:12;3.90;78.30
77277;DHT22;66330;52.166;9.978;2023-02-04T08:09:37;4.40;78.70
77277;DHT22;66330;52.166;9.978;2023-02-04T08:12:03;4.30;78.40
77277;DHT22;66330;52.166;9.978;2023-02-04T08:14:29;4.20;78.30
77277;DHT22;66330;52.166;9.978;2023-02-04T08:16:54;4.70;78.80
77277;DHT22;66330;52.166;9.978;2023-02-04T08:19:20;4.60;78.80
77277;DHT22;66330;52.166;9.978;2023-02-04T08:21:46;4.80;78.80
77277;DHT22;66330;52.166;9.978;2023-02-04T08:24:16;5.10;78.40
77277;DHT22;66330;52.166;9.978;2023-02-04T08:26:42;5.30;78.50
77277;DHT22;66330;52.166;9.978;2023-02-04T08:29:08;5.40;78.10
77277;DHT22;66330;52.166;9.978;2023-02-04T08:31:34;5.60;77.80
77277;DHT22;66330;52.166;9.978;2023-02-04T08:34:02;5.80;77.10
77277;DHT22;66330;52.166;9.978;2023-02-04T08:36:28;5.90;77.50
77277;DHT22;66330;52.166;9.978;2023-02-04T08:38:53;6.30;77.50
77277;DHT22;66330;52.166;9.978;2023-02-04T08:41:19;6.30;76.50
77277;DHT22;66330;52.166;9.978;2023-02-04T08:43:44;6.40;76.60
77277;DHT22;66330;52.166;9.978;2023-02-04T08:46:10;6.60;76.40
77277;DHT22;66330;52.166;9.978;2023-02-04T08:48:35;6.70;76.20
77277;DHT22;66330;52.166;9.978;2023-02-04T08:51:01;6.90;75.40
77277;DHT22;66330;52.166;9.978;2023-02-04T08:53:27;7.00;75.40
77277;DHT22;66330;52.166;9.978;2023-02-04T08:55:53;7.20;75.10
77277;DHT22;66330;52.166;9.978;2023-02-04T08:58:18;7.30;74.30
77277;DHT22;66330;52.166;9.978;2023-02-04T09:00:44;7.40;74.20
77277;DHT22;66330;52.166;9.978;2023-02-04T09:03:09;7.40;74.00
77277;DHT22;66330;52.166;9.978;2023-02-04T09:05:35;7.50;73.10
77277;DHT22;66330;52.166;9.978;2023-02-04T09:08:00;7.60;72.80
77277;DHT22;66330;52.166;9.978;2023-02-04T09:10:26;7.70;72.80
77277;DHT22;66330;52.166;9.978;2023-02-04T09:12:51;7.80;72.90
77277;DHT22;66330;52.166;9.978;2023-02-04T09:15:24;8.00;73.00
77277;DHT22;66330;52.166;9.978;2023-02-04T09:17:51;8.20;73.00
77277;DHT22;66330;52.166;9.978;2023-02-04T09:20:19;8.40;72.70
77277;DHT22;66330;52.166;9.978;2023-02-04T09:22:45;8.50;71.70
77277;DHT22;66330;52.166;9.978;2023-02-04T09:25:12;8.60;71.10
77277;DHT22;66330;52.166;9.978;2023-02-04T09:27:38;8.80;71.10
77277;DHT22;66330;52.166;9.978;2023-02-04T09:30:04;9.30;71.10
77277;DHT22;66330;52.166;9.978;2023-02-04T09:32:29;9.10;70.10
77277;DHT22;66330;52.166;9.978;2023-02-04T09:34:55;9.30;69.30
77277;DHT22;66330;52.166;9.978;2023-02-04T09:37:21;9.40;69.10
77277;DHT22;66330;52.166;9.978;2023-02-04T09:39:46;9.60;68.50
77277;DHT22;66330;52.166;9.978;2023-02-04T09:42:15;9.70;68.40
77277;DHT22;66330;52.166;9.978;2023-02-04T09:44:41;9.90;68.50
77277;DHT22;66330;52.166;9.978;2023-02-04T09:47:10;10.20;67.10
77277;DHT22;66330;52.166;9.978;2023-02-04T09:49:37;10.60;66.50
77277;DHT22;66330;52.166;9.978;2023-02-04T09:52:03;10.70;65.30
77277;DHT22;66330;52.166;9.978;2023-02-04T09:54:28;10.90;64.50
77277;DHT22;66330;52.166;9.978;2023-02-04T09:56:54;11.10;63.80
77277;DHT22;66330;52.166;9.978;2023-02-04T09:59:22;11.30;63.50
77277;DHT22;66330;52.166;9.978;2023-02-04T10:02:00;11.40;62.80
77277;DHT22;66330;52.166;9.978;2023-02-04T10:04:26;11.50;62.40
77277;DHT22;66330;52.166;9.978;2023-02-04T10:06:52;11.60;62.40
77277;DHT22;66330;52.166;9.978;2023-02-04T10:09:19;11.80;61.80
77277;DHT22;66330;52.166;9.978;2023-02-04T10:11:47;12.10;61.30
77277;DHT22;66330;52.166;9.978;2023-02-04T10:14:18;12.40;60.00
77277;DHT22;66330;52.166;9.978;2023-02-04T10:16:55;12.70;58.90
77277;DHT22;66330;52.166;9.978;2023-02-04T10:19:22;13.20;58.90
77277;DHT22;66330;52.166;9.978;2023-02-04T10:21:48;13.90;58.10
77277;DHT22;66330;52.166;9.978;2023-02-04T10:24:19;14.70;57.20
77277;DHT22;66330;52.166;9.978;2023-02-04T10:26:45;15.40;55.80
77277;DHT22;66330;52.166;9.978;2023-02-04T10:29:22;15.30;53.90
77277;DHT22;66330;52.166;9.978;2023-02-04T10:31:50;14.90;53.10
77277;DHT22;66330;52.166;9.978;2023-02-04T10:34:42;14.40;53.10
77277;DHT22;66330;52.166;9.978;2023-02-04T10:37:19;13.80;52.80
77277;DHT22;66330;52.166;9.978;2023-02-04T10:39:45;13.50;53.20
77277;DHT22;66330;52.166;9.978;2023-02-04T10:42:22;13.20;53.30
77277;DHT22;66330;52.166;9.978;2023-02-04T10:44:48;12.90;53.80
77277;DHT22;66330;52.166;9.978;2023-02-04T10:47:25;12.70;54.00
77277;DHT22;66330;52.166;9.978;2023-02-04T10:50:14;12.50;53.80
77277;DHT22;66330;52.166;9.978;2023-02-04T10:52:43;12.40;54.40
77277;DHT22;66330;52.166;9.978;2023-02-04T10:55:13;12.40;54.50
77277;DHT22;66330;52.166;9.978;2023-02-04T10:57:42;12.40;54.40
77277;DHT22;66330;52.166;9.978;2023-02-04T11:05:19;12.40;54.60
77277;DHT22;66330;52.166;9.978;2023-02-04T11:07:46;12.20;54.00
77277;DHT22;66330;52.166;9.978;2023-02-04T11:10:32;12.10;53.90
77277;DHT22;66330;52.166;9.978;2023-02-04T11:13:02;11.70;53.60
77277;DHT22;66330;52.166;9.978;2023-02-04T11:15:48;12.70;54.90
77277;DHT22;66330;52.166;9.978;2023-02-04T11:20:50;14.60;52.80
77277;DHT22;66330;52.166;9.978;2023-02-04T11:25:42;14.30;51.20
77277;DHT22;66330;52.166;9.978;2023-02-04T11:28:23;14.00;51.10
77277;DHT22;66330;52.166;9.978;2023-02-04T11:31:00;13.70;51.30
77277;DHT22;66330;52.166;9.978;2023-02-04T11:33:40;13.60;51.50
77277;DHT22;66330;52.166;9.978;2023-02-04T11:36:11;13.40;51.50
77277;DHT22;66330;52.166;9.978;2023-02-04T11:38:39;13.50;51.50
77277;DHT22;66330;52.166;9.978;2023-02-04T11:41:24;14.40;52.10
77277;DHT22;66330;52.166;9.978;2023-02-04T11:43:52;14.70;51.10
77277;DHT22;66330;52.166;9.978;2023-02-04T11:46:19;15.90;51.40
77277;DHT22;66330;52.166;9.978;2023-02-04T11:48:45;16.40;49.70
77277;DHT22;66330;52.166;9.978;2023-02-04T11:51:15;16.40;48.60
77277;DHT22;66330;52.166;9.978;2023-02-04T11:53:42;16.40;48.10
77277;DHT22;66330;52.166;9.978;2023-02-04T11:56:16;16.20;47.90
77277;DHT22;66330;52.166;9.978;2023-02-04T11:58:42;16.10;47.50
77277;DHT22;66330;52.166;9.978;2023-02-04T12:01:22;16.00;44.30
77277;DHT22;66330;52.166;9.978;2023-02-04T12:03:55;16.10;45.40
77277;DHT22;66330;52.166;9.978;2023-02-04T12:06:27;17.10;46.50
77277;DHT22;66330;52.166;9.978;2023-02-04T12:09:25;18.50;46.80
77277;DHT22;66330;52.166;9.978;2023-02-04T12:12:00;19.80;45.70
77277;DHT22;66330;52.166;9.978;2023-02-04T12:14:34;21.30;44.80
77277;DHT22;66330;52.166;9.978;2023-02-04T12:17:14;22.00;43.00
77277;DHT22;66330;52.166;9.978;2023-02-04T12:19:40;22.40;41.50
77277;DHT22;66330;52.166;9.978;2023-02-04T12:22:06;22.60;41.20
77277;DHT22;66330;52.166;9.978;2023-02-04T12:24:32;23.00;40.60
77277;DHT22;66330;52.166;9.978;2023-02-04T12:26:57;23.60;40.10
77277;DHT22;66330;52.166;9.978;2023-02-04T12:29:23;24.20;39.60
77277;DHT22;66330;52.166;9.978;2023-02-04T12:31:48;24.70;39.10
77277;DHT22;66330;52.166;9.978;2023-02-04T12:34:14;24.70;37.40
77277;DHT22;66330;52.166;9.978;2023-02-04T12:36:41;24.20;36.20
77277;DHT22;66330;52.166;9.978;2023-02-04T12:39:07;23.40;35.80
77277;DHT22;66330;52.166;9.978;2023-02-04T12:41:33;22.50;35.50
77277;DHT22;66330;52.166;9.978;2023-02-04T12:43:58;21.60;35.60
77277;DHT22;66330;52.166;9.978;2023-02-04T12:46:25;21.20;36.70
77277;DHT22;66330;52.166;9.978;2023-02-04T12:48:51;21.50;37.30
77277;DHT22;66330;52.166;9.978;2023-02-04T12:51:17;22.00;37.30
77277;DHT22;66330;52.166;9.978;2023-02-04T12:53:43;22.50;37.10
77277;DHT22;66330;52.166;9.978;2023-02-04T12:56:08;22.60;36.40
77277;DHT22;66330;52.166;9.978;2023-02-04T12:58:34;22.20;35.70
77277;DHT22;66330;52.166;9.978;2023-02-04T13:00:59;21.60;35.60
77277;DHT22;66330;52.166;9.978;2023-02-04T13:03:25;20.60;35.10
77277;DHT22;66330;52.166;9.978;2023-02-04T13:05:50;19.60;35.60
77277;DHT22;66330;52.166;9.978;2023-02-04T13:08:16;18.70;36.40
77277;DHT22;66330;52.166;9.978;2023-02-04T13:10:41;18.10;37.10
77277;DHT22;66330;52.166;9.978;2023-02-04T13:13:07;17.40;37.60
77277;DHT22;66330;52.166;9.978;2023-02-04T13:15:33;16.70;38.00
77277;DHT22;66330;52.166;9.978;2023-02-04T13:17:58;16.10;38.60
77277;DHT22;66330;52.166;9.978;2023-02-04T13:20:24;15.50;39.30
77277;DHT22;66330;52.166;9.978;2023-02-04T13:22:49;15.00;40.30
77277;DHT22;66330;52.166;9.978;2023-02-04T13:25:15;14.50;40.70
77277;DHT22;66330;52.166;9.978;2023-02-04T13:27:40;14.10;41.20
77277;DHT22;66330;52.166;9.978;2023-02-04T13:30:08;13.80;42.00
77277;DHT22;66330;52.166;9.978;2023-02-04T13:32:33;13.50;42.60
77277;DHT22;66330;52.166;9.978;2023-02-04T13:34:59;13.20;42.80
77277;DHT22;66330;52.166;9.978;2023-02-04T13:37:25;13.00;43.90
77277;DHT22;66330;52.166;9.978;2023-02-04T13:39:50;12.70;43.30
77277;DHT22;66330;52.166;9.978;2023-02-04T13:42:16;12.10;43.50
77277;DHT22;66330;52.166;9.978;2023-02-04T13:44:41;12.20;43.90
77277;DHT22;66330;52.166;9.978;2023-02-04T13:47:07;12.00;44.00
77277;DHT22;66330;52.166;9.978;2023-02-04T13:49:33;11.80;44.50
77277;DHT22;66330;52.166;9.978;2023-02-04T13:51:58;11.60;44.80
77277;DHT22;66330;52.166;9.978;2023-02-04T13:54:24;11.50;45.20
77277;DHT22;66330;52.166;9.978;2023-02-04T13:56:50;11.30;45.50
77277;DHT22;66330;52.166;9.978;2023-02-04T13:59:15;11.10;45.80
77277;DHT22;66330;52.166;9.978;2023-02-04T14:01:41;10.80;45.80
77277;DHT22;66330;52.166;9.978;2023-02-04T14:04:07;10.70;46.30
77277;DHT22;66330;52.166;9.978;2023-02-04T14:06:32;10.50;46.80
77277;DHT22;66330;52.166;9.978;2023-02-04T14:09:02;10.50;47.50
77277;DHT22;66330;52.166;9.978;2023-02-04T14:11:28;10.30;47.60
77277;DHT22;66330;52.166;9.978;2023-02-04T14:13:54;10.20;47.80
77277;DHT22;66330;52.166;9.978;2023-02-04T14:16:19;10.20;47.80
77277;DHT22;66330;52.166;9.978;2023-02-04T14:18:45;10.20;48.10
77277;DHT22;66330;52.166;9.978;2023-02-04T14:21:11;10.20;48.30
77277;DHT22;66330;52.166;9.978;2023-02-04T14:23:36;10.30;48.90
77277;DHT22;66330;52.166;9.978;2023-02-04T14:26:02;10.40;48.70
77277;DHT22;66330;52.166;9.978;2023-02-04T14:28:27;10.40;48.90
77277;DHT22;66330;52.166;9.978;2023-02-04T14:30:53;10.50;48.90
77277;DHT22;66330;52.166;9.978;2023-02-04T14:33:19;10.30;48.80
77277;DHT22;66330;52.166;9.978;2023-02-04T14:35:45;10.60;49.10
77277;DHT22;66330;52.166;9.978;2023-02-04T14:38:11;10.60;48.60
77277;DHT22;66330;52.166;9.978;2023-02-04T14:40:40;10.60;48.50
77277;DHT22;66330;52.166;9.978;2023-02-04T14:43:07;10.50;49.00
77277;DHT22;66330;52.166;9.978;2023-02-04T14:45:32;10.40;48.40
77277;DHT22;66330;52.166;9.978;2023-02-04T14:47:58;10.40;49.10
77277;DHT22;66330;52.166;9.978;2023-02-04T14:50:25;10.40;48.90
77277;DHT22;66330;52.166;9.978;2023-02-04T14:52:53;10.40;49.40
77277;DHT22;66330;52.166;9.978;2023-02-04T14:55:20;10.40;49.40
77277;DHT22;66330;52.166;9.978;2023-02-04T14:57:45;10.30;49.20
77277;DHT22;66330;52.166;9.978;2023-02-04T15:00:11;10.40;49.60
77277;DHT22;66330;52.166;9.978;2023-02-04T15:02:37;10.40;49.60
77277;DHT22;66330;52.166;9.978;2023-02-04T15:05:03;10.60;49.10
77277;DHT22;66330;52.166;9.978;2023-02-04T15:07:29;10.80;49.20
77277;DHT22;66330;52.166;9.978;2023-02-04T15:09:54;11.20;49.40
77277;DHT22;66330;52.166;9.978;2023-02-04T15:12:20;11.50;49.50
77277;DHT22;66330;52.166;9.978;2023-02-04T15:14:46;11.60;48.50
77277;DHT22;66330;52.166;9.978;2023-02-04T15:17:12;11.70;48.20
77277;DHT22;66330;52.166;9.978;2023-02-04T15:19:38;11.50;47.80
77277;DHT22;66330;52.166;9.978;2023-02-04T15:22:03;11.40;47.80
77277;DHT22;66330;52.166;9.978;2023-02-04T15:24:29;10.90;47.40
77277;DHT22;66330;52.166;9.978;2023-02-04T15:26:55;11.00;47.70
77277;DHT22;66330;52.166;9.978;2023-02-04T15:29:20;10.90;47.90
77277;DHT22;66330;52.166;9.978;2023-02-04T15:31:46;10.60;48.10
77277;DHT22;66330;52.166;9.978;2023-02-04T15:34:12;10.40;47.70
77277;DHT22;66330;52.166;9.978;2023-02-04T15:36:38;10.20;48.40
77277;DHT22;66330;52.166;9.978;2023-02-04T15:39:03;10.00;48.20
77277;DHT22;66330;52.166;9.978;2023-02-04T15:41:29;9.80;49.80
77277;DHT22;66330;52.166;9.978;2023-02-04T15:43:54;9.70;49.70
77277;DHT22;66330;52.166;9.978;2023-02-04T15:46:20;9.50;49.90
77277;DHT22;66330;52.166;9.978;2023-02-04T15:48:46;9.20;50.10
77277;DHT22;66330;52.166;9.978;2023-02-04T15:51:11;9.10;50.80